sensor_id;sensor_type;location;lat;lon;timestamp;P1;durP1;ratioP1;P2;durP2;ratioP2
22929;SDS011;11630;42.660;23.292;2024-02-21T00:00:06;6.93;;;5.90;;
22929;SDS011;11630;42.660;23.292;2024-02-21T00:02:37;6.90;;;6.30;;
22929;SDS011;11630;42.660;23.292;2024-02-21T00:05:08;6.53;;;5.30;;
22929;SDS011;11630;42.660;23.292;2024-02-21T00:07:39;7.13;;;5.63;;
22929;SDS011;11630;42.660;23.292;2024-02-21T00:10:10;7.33;;;5.87;;
22929;SDS011;11630;42.660;23.292;2024-02-21T00:12:41;8.13;;;6.20;;
22929;SDS011;11630;42.660;23.292;2024-02-21T00:15:12;5.33;;;4.83;;
22929;SDS011;11630;42.660;23.292;2024-02-21T00:17:43;7.53;;;5.17;;
22929;SDS011;11630;42.660;23.292;2024-02-21T00:20:13;7.83;;;6.30;;
22929;SDS011;11630;42.660;23.292;2024-02-21T00:22:44;6.93;;;6.00;;
22929;SDS011;11630;42.660;23.292;2024-02-21T00:25:15;7.37;;;5.70;;
22929;SDS011;11630;42.660;23.292;2024-02-21T00:27:46;6.20;;;5.60;;
22929;SDS011;11630;42.660;23.292;2024-02-21T00:30:17;9.17;;;6.67;;
22929;SDS011;11630;42.660;23.292;2024-02-21T00:32:48;6.57;;;5.80;;
22929;SDS011;11630;42.660;23.292;2024-02-21T00:35:21;7.00;;;5.70;;
22929;SDS011;11630;42.660;23.292;2024-02-21T00:37:51;8.70;;;6.23;;
22929;SDS011;11630;42.660;23.292;2024-02-21T00:40:22;9.60;;;6.00;;
22929;SDS011;11630;42.660;23.292;2024-02-21T00:42:53;6.17;;;5.57;;
22929;SDS011;11630;42.660;23.292;2024-02-21T00:45:25;7.33;;;6.43;;
22929;SDS011;11630;42.660;23.292;2024-02-21T00:47:56;8.10;;;5.83;;
22929;SDS011;11630;42.660;23.292;2024-02-21T00:50:27;7.30;;;6.60;;
22929;SDS011;11630;42.660;23.292;2024-02-21T00:52:59;7.83;;;6.47;;
22929;SDS011;11630;42.660;23.292;2024-02-21T00:55:30;7.47;;;6.40;;
22929;SDS011;11630;42.660;23.292;2024-02-21T00:58:01;6.87;;;5.93;;
22929;SDS011;11630;42.660;23.292;2024-02-21T01:00:32;7.30;;;6.53;;
22929;SDS011;11630;42.660;23.292;2024-02-21T01:03:03;6.93;;;6.23;;
22929;SDS011;11630;42.660;23.292;2024-02-21T01:05:33;9.53;;;6.77;;
22929;SDS011;11630;42.660;23.292;2024-02-21T01:08:04;9.23;;;6.70;;
22929;SDS011;11630;42.660;23.292;2024-02-21T01:10:37;8.50;;;6.43;;
22929;SDS011;11630;42.660;23.292;2024-02-21T01:13:08;8.30;;;6.23;;
22929;SDS011;11630;42.660;23.292;2024-02-21T01:15:38;8.93;;;6.10;;
22929;SDS011;11630;42.660;23.292;2024-02-21T01:18:10;9.00;;;6.03;;
22929;SDS011;11630;42.660;23.292;2024-02-21T01:20:41;7.30;;;6.37;;
22929;SDS011;11630;42.660;23.292;2024-02-21T01:23:12;7.80;;;6.97;;
22929;SDS011;11630;42.660;23.292;2024-02-21T01:25:43;6.73;;;5.77;;
22929;SDS011;11630;42.660;23.292;2024-02-21T01:28:13;8.30;;;6.03;;
22929;SDS011;11630;42.660;23.292;2024-02-21T01:30:44;6.83;;;6.03;;
22929;SDS011;11630;42.660;23.292;2024-02-21T01:33:15;7.50;;;6.10;;
22929;SDS011;11630;42.660;23.292;2024-02-21T01:35:46;8.17;;;6.50;;
22929;SDS011;11630;42.660;23.292;2024-02-21T01:38:17;9.30;;;6.03;;
22929;SDS011;11630;42.660;23.292;2024-02-21T01:40:47;7.07;;;6.00;;
22929;SDS011;11630;42.660;23.292;2024-02-21T01:43:19;7.97;;;6.23;;
22929;SDS011;11630;42.660;23.292;2024-02-21T01:45:50;8.30;;;6.60;;
22929;SDS011;11630;42.660;23.292;2024-02-21T01:48:24;9.33;;;7.13;;
22929;SDS011;11630;42.660;23.292;2024-02-21T01:50:54;9.10;;;6.57;;
22929;SDS011;11630;42.660;23.292;2024-02-21T01:53:44;10.47;;;8.37;;
22929;SDS011;11630;42.660;23.292;2024-02-21T01:56:04;10.93;;;7.77;;
22929;SDS011;11630;42.660;23.292;2024-02-21T01:58:36;12.17;;;9.33;;
22929;SDS011;11630;42.660;23.292;2024-02-21T02:01:07;11.13;;;9.03;;
22929;SDS011;11630;42.660;23.292;2024-02-21T02:03:39;14.07;;;10.57;;
22929;SDS011;11630;42.660;23.292;2024-02-21T02:06:10;11.33;;;7.40;;
22929;SDS011;11630;42.660;23.292;2024-02-21T02:08:41;13.10;;;9.50;;
22929;SDS011;11630;42.660;23.292;2024-02-21T02:11:15;13.97;;;10.33;;
22929;SDS011;11630;42.660;23.292;2024-02-21T02:13:46;14.10;;;10.33;;
22929;SDS011;11630;42.660;23.292;2024-02-21T02:16:18;15.10;;;10.80;;
22929;SDS011;11630;42.660;23.292;2024-02-21T02:18:49;13.80;;;10.57;;
22929;SDS011;11630;42.660;23.292;2024-02-21T02:23:57;14.27;;;11.07;;
22929;SDS011;11630;42.660;23.292;2024-02-21T02:26:29;13.97;;;10.73;;
22929;SDS011;11630;42.660;23.292;2024-02-21T02:29:01;15.60;;;11.63;;
22929;SDS011;11630;42.660;23.292;2024-02-21T02:31:32;14.13;;;11.20;;
22929;SDS011;11630;42.660;23.292;2024-02-21T02:34:03;16.80;;;12.07;;
22929;SDS011;11630;42.660;23.292;2024-02-21T02:36:33;16.33;;;11.77;;
22929;SDS011;11630;42.660;23.292;2024-02-21T02:39:03;16.97;;;12.30;;
22929;SDS011;11630;42.660;23.292;2024-02-21T02:41:36;16.40;;;12.63;;
22929;SDS011;11630;42.660;23.292;2024-02-21T02:44:07;16.87;;;13.20;;
22929;SDS011;11630;42.660;23.292;2024-02-21T02:46:40;16.13;;;13.17;;
22929;SDS011;11630;42.660;23.292;2024-02-21T02:49:10;17.97;;;12.73;;
22929;SDS011;11630;42.660;23.292;2024-02-21T02:51:46;15.77;;;12.30;;
22929;SDS011;11630;42.660;23.292;2024-02-21T02:54:13;15.60;;;12.67;;
22929;SDS011;11630;42.660;23.292;2024-02-21T02:56:43;16.63;;;11.97;;
22929;SDS011;11630;42.660;23.292;2024-02-21T02:59:14;17.57;;;12.97;;
22929;SDS011;11630;42.660;23.292;2024-02-21T03:01:45;13.70;;;11.23;;
22929;SDS011;11630;42.660;23.292;2024-02-21T03:04:15;16.27;;;12.53;;
22929;SDS011;11630;42.660;23.292;2024-02-21T03:06:46;15.63;;;10.93;;
22929;SDS011;11630;42.660;23.292;2024-02-21T03:09:17;15.50;;;11.47;;
22929;SDS011;11630;42.660;23.292;2024-02-21T03:11:48;14.63;;;11.47;;
22929;SDS011;11630;42.660;23.292;2024-02-21T03:14:19;15.17;;;12.13;;
22929;SDS011;11630;42.660;23.292;2024-02-21T03:16:52;16.30;;;12.27;;
22929;SDS011;11630;42.660;23.292;2024-02-21T03:19:22;17.03;;;11.70;;
22929;SDS011;11630;42.660;23.292;2024-02-21T03:21:54;14.63;;;11.57;;
22929;SDS011;11630;42.660;23.292;2024-02-21T03:24:25;16.70;;;11.10;;
22929;SDS011;11630;42.660;23.292;2024-02-21T03:26:55;15.87;;;11.73;;
22929;SDS011;11630;42.660;23.292;2024-02-21T03:29:27;12.93;;;11.27;;
22929;SDS011;11630;42.660;23.292;2024-02-21T03:31:58;16.53;;;12.00;;
22929;SDS011;11630;42.660;23.292;2024-02-21T03:34:29;16.10;;;11.90;;
22929;SDS011;11630;42.660;23.292;2024-02-21T03:37:00;16.17;;;12.87;;
22929;SDS011;11630;42.660;23.292;2024-02-21T03:39:31;14.97;;;11.83;;
22929;SDS011;11630;42.660;23.292;2024-02-21T03:42:02;17.13;;;12.87;;
22929;SDS011;11630;42.660;23.292;2024-02-21T03:44:34;15.90;;;11.67;;
22929;SDS011;11630;42.660;23.292;2024-02-21T03:47:04;16.87;;;12.53;;
22929;SDS011;11630;42.660;23.292;2024-02-21T03:49:35;15.13;;;11.90;;
22929;SDS011;11630;42.660;23.292;2024-02-21T03:52:06;17.23;;;12.77;;
22929;SDS011;11630;42.660;23.292;2024-02-21T03:54:36;17.33;;;13.30;;
22929;SDS011;11630;42.660;23.292;2024-02-21T03:57:07;19.03;;;13.20;;
22929;SDS011;11630;42.660;23.292;2024-02-21T03:59:38;15.70;;;13.03;;
22929;SDS011;11630;42.660;23.292;2024-02-21T04:02:09;18.47;;;13.67;;
22929;SDS011;11630;42.660;23.292;2024-02-21T04:04:42;18.23;;;13.47;;
22929;SDS011;11630;42.660;23.292;2024-02-21T04:07:14;16.50;;;12.10;;
22929;SDS011;11630;42.660;23.292;2024-02-21T04:09:45;18.37;;;13.63;;
22929;SDS011;11630;42.660;23.292;2024-02-21T04:12:17;21.13;;;14.83;;
22929;SDS011;11630;42.660;23.292;2024-02-21T04:14:48;18.30;;;13.60;;
22929;SDS011;11630;42.660;23.292;2024-02-21T04:17:19;21.93;;;15.03;;
22929;SDS011;11630;42.660;23.292;2024-02-21T04:19:50;22.10;;;16.03;;
22929;SDS011;11630;42.660;23.292;2024-02-21T04:22:22;19.83;;;14.47;;
22929;SDS011;11630;42.660;23.292;2024-02-21T04:24:53;19.83;;;14.33;;
22929;SDS011;11630;42.660;23.292;2024-02-21T04:27:24;18.37;;;13.30;;
22929;SDS011;11630;42.660;23.292;2024-02-21T04:29:55;21.97;;;14.83;;
22929;SDS011;11630;42.660;23.292;2024-02-21T04:32:31;18.67;;;14.70;;
22929;SDS011;11630;42.660;23.292;2024-02-21T04:34:58;20.00;;;14.40;;
22929;SDS011;11630;42.660;23.292;2024-02-21T04:37:32;19.13;;;13.83;;
22929;SDS011;11630;42.660;23.292;2024-02-21T04:40:06;20.87;;;14.43;;
22929;SDS011;11630;42.660;23.292;2024-02-21T04:42:40;18.37;;;14.80;;
22929;SDS011;11630;42.660;23.292;2024-02-21T04:45:12;22.27;;;14.83;;
22929;SDS011;11630;42.660;23.292;2024-02-21T04:47:44;20.20;;;15.00;;
22929;SDS011;11630;42.660;23.292;2024-02-21T04:50:15;23.87;;;15.73;;
22929;SDS011;11630;42.660;23.292;2024-02-21T04:52:46;19.00;;;14.57;;
22929;SDS011;11630;42.660;23.292;2024-02-21T04:55:17;18.90;;;14.60;;
22929;SDS011;11630;42.660;23.292;2024-02-21T04:57:47;21.27;;;13.60;;
22929;SDS011;11630;42.660;23.292;2024-02-21T05:00:17;21.83;;;15.67;;
22929;SDS011;11630;42.660;23.292;2024-02-21T05:02:51;18.90;;;14.00;;
22929;SDS011;11630;42.660;23.292;2024-02-21T05:05:22;21.33;;;14.60;;
22929;SDS011;11630;42.660;23.292;2024-02-21T05:07:52;20.30;;;15.00;;
22929;SDS011;11630;42.660;23.292;2024-02-21T05:10:24;19.93;;;14.63;;
22929;SDS011;11630;42.660;23.292;2024-02-21T05:12:54;19.23;;;15.00;;
22929;SDS011;11630;42.660;23.292;2024-02-21T05:15:24;18.53;;;14.57;;
22929;SDS011;11630;42.660;23.292;2024-02-21T05:17:55;18.83;;;14.13;;
22929;SDS011;11630;42.660;23.292;2024-02-21T05:20:26;21.93;;;14.60;;
22929;SDS011;11630;42.660;23.292;2024-02-21T05:22:58;21.40;;;15.50;;
22929;SDS011;11630;42.660;23.292;2024-02-21T05:25:28;24.20;;;15.70;;
22929;SDS011;11630;42.660;23.292;2024-02-21T05:27:59;21.00;;;14.97;;
22929;SDS011;11630;42.660;23.292;2024-02-21T05:30:30;23.77;;;15.33;;
22929;SDS011;11630;42.660;23.292;2024-02-21T05:33:10;21.10;;;15.27;;
22929;SDS011;11630;42.660;23.292;2024-02-21T05:35:36;20.90;;;14.87;;
22929;SDS011;11630;42.660;23.292;2024-02-21T05:38:09;20.50;;;14.00;;
22929;SDS011;11630;42.660;23.292;2024-02-21T05:40:40;19.67;;;14.27;;
22929;SDS011;11630;42.660;23.292;2024-02-21T05:43:10;21.47;;;13.40;;
22929;SDS011;11630;42.660;23.292;2024-02-21T05:45:45;18.03;;;13.53;;
22929;SDS011;11630;42.660;23.292;2024-02-21T05:48:13;17.70;;;13.10;;
22929;SDS011;11630;42.660;23.292;2024-02-21T05:50:45;19.00;;;14.33;;
22929;SDS011;11630;42.660;23.292;2024-02-21T05:53:16;27.97;;;16.47;;
22929;SDS011;11630;42.660;23.292;2024-02-21T05:55:47;20.93;;;14.77;;
22929;SDS011;11630;42.660;23.292;2024-02-21T05:58:18;21.80;;;14.50;;
22929;SDS011;11630;42.660;23.292;2024-02-21T06:00:49;18.43;;;13.73;;
22929;SDS011;11630;42.660;23.292;2024-02-21T06:03:20;18.83;;;12.20;;
22929;SDS011;11630;42.660;23.292;2024-02-21T06:05:50;16.07;;;11.13;;
22929;SDS011;11630;42.660;23.292;2024-02-21T06:08:22;16.90;;;12.77;;
22929;SDS011;11630;42.660;23.292;2024-02-21T06:10:53;19.90;;;13.50;;
22929;SDS011;11630;42.660;23.292;2024-02-21T06:13:24;17.50;;;13.90;;
22929;SDS011;11630;42.660;23.292;2024-02-21T06:15:54;19.53;;;12.93;;
22929;SDS011;11630;42.660;23.292;2024-02-21T06:18:25;26.00;;;15.17;;
22929;SDS011;11630;42.660;23.292;2024-02-21T06:20:55;21.80;;;15.23;;
22929;SDS011;11630;42.660;23.292;2024-02-21T06:23:26;24.63;;;15.67;;
22929;SDS011;11630;42.660;23.292;2024-02-21T06:25:57;21.27;;;14.57;;
22929;SDS011;11630;42.660;23.292;2024-02-21T06:28:28;20.30;;;14.87;;
22929;SDS011;11630;42.660;23.292;2024-02-21T06:30:59;21.73;;;14.40;;
22929;SDS011;11630;42.660;23.292;2024-02-21T06:33:29;18.40;;;14.70;;
22929;SDS011;11630;42.660;23.292;2024-02-21T06:36:00;21.07;;;14.20;;
22929;SDS011;11630;42.660;23.292;2024-02-21T06:38:30;23.57;;;15.97;;
22929;SDS011;11630;42.660;23.292;2024-02-21T06:41:02;21.40;;;14.90;;
22929;SDS011;11630;42.660;23.292;2024-02-21T06:43:32;20.03;;;15.63;;
22929;SDS011;11630;42.660;23.292;2024-02-21T06:46:03;22.97;;;14.50;;
22929;SDS011;11630;42.660;23.292;2024-02-21T06:48:34;22.23;;;14.23;;
22929;SDS011;11630;42.660;23.292;2024-02-21T06:51:06;23.73;;;14.93;;
22929;SDS011;11630;42.660;23.292;2024-02-21T06:53:37;23.70;;;14.90;;
22929;SDS011;11630;42.660;23.292;2024-02-21T06:56:08;22.73;;;16.37;;
22929;SDS011;11630;42.660;23.292;2024-02-21T06:58:38;22.43;;;16.57;;
22929;SDS011;11630;42.660;23.292;2024-02-21T07:01:10;21.13;;;14.30;;
22929;SDS011;11630;42.660;23.292;2024-02-21T07:03:41;22.07;;;16.40;;
22929;SDS011;11630;42.660;23.292;2024-02-21T07:06:12;24.20;;;16.00;;
22929;SDS011;11630;42.660;23.292;2024-02-21T07:08:41;23.50;;;16.57;;
22929;SDS011;11630;42.660;23.292;2024-02-21T07:11:11;21.33;;;14.77;;
22929;SDS011;11630;42.660;23.292;2024-02-21T07:13:41;21.20;;;15.07;;
22929;SDS011;11630;42.660;23.292;2024-02-21T07:16:15;24.87;;;14.80;;
22929;SDS011;11630;42.660;23.292;2024-02-21T07:18:46;25.53;;;15.97;;
22929;SDS011;11630;42.660;23.292;2024-02-21T07:21:17;22.97;;;15.63;;
22929;SDS011;11630;42.660;23.292;2024-02-21T07:23:47;19.50;;;13.93;;
22929;SDS011;11630;42.660;23.292;2024-02-21T07:26:17;22.67;;;15.83;;
22929;SDS011;11630;42.660;23.292;2024-02-21T07:28:49;23.17;;;14.17;;
22929;SDS011;11630;42.660;23.292;2024-02-21T07:31:19;22.40;;;16.73;;
22929;SDS011;11630;42.660;23.292;2024-02-21T07:33:50;21.90;;;15.20;;
22929;SDS011;11630;42.660;23.292;2024-02-21T07:36:32;25.37;;;15.77;;
22929;SDS011;11630;42.660;23.292;2024-02-21T07:38:59;20.10;;;15.07;;
22929;SDS011;11630;42.660;23.292;2024-02-21T07:41:30;25.27;;;16.70;;
22929;SDS011;11630;42.660;23.292;2024-02-21T07:44:01;24.93;;;17.03;;
22929;SDS011;11630;42.660;23.292;2024-02-21T07:46:32;21.27;;;14.93;;
22929;SDS011;11630;42.660;23.292;2024-02-21T07:49:03;24.73;;;16.30;;
22929;SDS011;11630;42.660;23.292;2024-02-21T07:51:34;24.37;;;16.73;;
22929;SDS011;11630;42.660;23.292;2024-02-21T07:54:05;24.47;;;16.07;;
22929;SDS011;11630;42.660;23.292;2024-02-21T07:56:35;24.67;;;16.30;;
22929;SDS011;11630;42.660;23.292;2024-02-21T07:59:07;22.10;;;16.07;;
22929;SDS011;11630;42.660;23.292;2024-02-21T08:01:38;20.13;;;15.37;;
22929;SDS011;11630;42.660;23.292;2024-02-21T08:04:11;23.43;;;16.47;;
22929;SDS011;11630;42.660;23.292;2024-02-21T08:06:41;21.93;;;15.50;;
22929;SDS011;11630;42.660;23.292;2024-02-21T08:09:12;24.73;;;16.87;;
22929;SDS011;11630;42.660;23.292;2024-02-21T08:11:43;21.27;;;15.63;;
22929;SDS011;11630;42.660;23.292;2024-02-21T08:14:14;20.50;;;15.07;;
22929;SDS011;11630;42.660;23.292;2024-02-21T08:16:45;20.50;;;15.13;;
22929;SDS011;11630;42.660;23.292;2024-02-21T08:19:15;21.37;;;13.47;;
22929;SDS011;11630;42.660;23.292;2024-02-21T08:21:46;21.53;;;16.20;;
22929;SDS011;11630;42.660;23.292;2024-02-21T08:24:18;22.07;;;15.07;;
22929;SDS011;11630;42.660;23.292;2024-02-21T08:26:49;18.97;;;13.20;;
22929;SDS011;11630;42.660;23.292;2024-02-21T08:29:19;21.33;;;14.43;;
22929;SDS011;11630;42.660;23.292;2024-02-21T08:31:50;15.70;;;12.67;;
22929;SDS011;11630;42.660;23.292;2024-02-21T08:34:23;19.20;;;14.20;;
22929;SDS011;11630;42.660;23.292;2024-02-21T08:36:53;20.13;;;13.03;;
22929;SDS011;11630;42.660;23.292;2024-02-21T08:39:25;21.10;;;14.47;;
22929;SDS011;11630;42.660;23.292;2024-02-21T08:41:56;17.63;;;13.23;;
22929;SDS011;11630;42.660;23.292;2024-02-21T08:44:27;17.57;;;12.97;;
22929;SDS011;11630;42.660;23.292;2024-02-21T08:46:58;16.23;;;11.33;;
22929;SDS011;11630;42.660;23.292;2024-02-21T08:49:29;16.33;;;12.00;;
22929;SDS011;11630;42.660;23.292;2024-02-21T08:52:01;14.60;;;12.23;;
22929;SDS011;11630;42.660;23.292;2024-02-21T08:54:31;16.40;;;10.10;;
22929;SDS011;11630;42.660;23.292;2024-02-21T08:57:02;20.23;;;11.93;;
22929;SDS011;11630;42.660;23.292;2024-02-21T08:59:33;16.03;;;12.10;;
22929;SDS011;11630;42.660;23.292;2024-02-21T09:02:04;16.23;;;11.83;;
22929;SDS011;11630;42.660;23.292;2024-02-21T09:04:35;16.63;;;12.00;;
22929;SDS011;11630;42.660;23.292;2024-02-21T09:07:05;16.80;;;12.90;;
22929;SDS011;11630;42.660;23.292;2024-02-21T09:09:37;19.53;;;13.33;;
22929;SDS011;11630;42.660;23.292;2024-02-21T09:12:08;18.27;;;12.27;;
22929;SDS011;11630;42.660;23.292;2024-02-21T09:14:38;19.93;;;12.63;;
22929;SDS011;11630;42.660;23.292;2024-02-21T09:17:09;17.37;;;12.80;;
22929;SDS011;11630;42.660;23.292;2024-02-21T09:19:40;14.67;;;11.13;;
22929;SDS011;11630;42.660;23.292;2024-02-21T09:22:10;14.53;;;11.87;;
22929;SDS011;11630;42.660;23.292;2024-02-21T09:24:42;17.47;;;12.20;;
22929;SDS011;11630;42.660;23.292;2024-02-21T09:30:05;15.70;;;10.90;;
22929;SDS011;11630;42.660;23.292;2024-02-21T09:32:36;14.77;;;11.83;;
22929;SDS011;11630;42.660;23.292;2024-02-21T09:35:06;17.77;;;13.07;;
22929;SDS011;11630;42.660;23.292;2024-02-21T09:37:37;19.67;;;13.20;;
22929;SDS011;11630;42.660;23.292;2024-02-21T09:40:08;17.30;;;13.63;;
22929;SDS011;11630;42.660;23.292;2024-02-21T09:42:40;13.60;;;10.67;;
22929;SDS011;11630;42.660;23.292;2024-02-21T09:50:53;15.03;;;12.20;;
22929;SDS011;11630;42.660;23.292;2024-02-21T09:53:26;20.30;;;13.87;;
22929;SDS011;11630;42.660;23.292;2024-02-21T09:55:58;16.73;;;12.43;;
22929;SDS011;11630;42.660;23.292;2024-02-21T09:58:30;12.77;;;10.80;;
22929;SDS011;11630;42.660;23.292;2024-02-21T10:01:02;12.20;;;10.00;;
22929;SDS011;11630;42.660;23.292;2024-02-21T10:03:38;11.80;;;10.27;;
22929;SDS011;11630;42.660;23.292;2024-02-21T10:06:04;17.80;;;11.20;;
22929;SDS011;11630;42.660;23.292;2024-02-21T10:08:35;15.20;;;10.20;;
22929;SDS011;11630;42.660;23.292;2024-02-21T10:11:06;13.27;;;9.93;;
22929;SDS011;11630;42.660;23.292;2024-02-21T10:13:40;14.53;;;9.67;;
22929;SDS011;11630;42.660;23.292;2024-02-21T10:16:11;11.77;;;9.60;;
22929;SDS011;11630;42.660;23.292;2024-02-21T10:18:42;11.77;;;10.40;;
22929;SDS011;11630;42.660;23.292;2024-02-21T10:21:13;10.77;;;8.93;;
22929;SDS011;11630;42.660;23.292;2024-02-21T10:23:48;13.53;;;8.60;;
22929;SDS011;11630;42.660;23.292;2024-02-21T10:26:19;14.20;;;9.00;;
22929;SDS011;11630;42.660;23.292;2024-02-21T10:28:51;14.20;;;9.27;;
22929;SDS011;11630;42.660;23.292;2024-02-21T10:31:25;11.60;;;9.07;;
22929;SDS011;11630;42.660;23.292;2024-02-21T10:33:57;12.13;;;10.63;;
22929;SDS011;11630;42.660;23.292;2024-02-21T10:36:31;13.40;;;9.80;;
22929;SDS011;11630;42.660;23.292;2024-02-21T10:39:02;13.13;;;9.40;;
22929;SDS011;11630;42.660;23.292;2024-02-21T10:41:33;9.90;;;8.23;;
22929;SDS011;11630;42.660;23.292;2024-02-21T10:44:04;12.10;;;9.20;;
22929;SDS011;11630;42.660;23.292;2024-02-21T10:46:36;9.90;;;8.43;;
22929;SDS011;11630;42.660;23.292;2024-02-21T10:49:13;8.30;;;6.00;;
22929;SDS011;11630;42.660;23.292;2024-02-21T10:51:44;8.27;;;7.40;;
22929;SDS011;11630;42.660;23.292;2024-02-21T10:57:00;8.93;;;6.07;;
22929;SDS011;11630;42.660;23.292;2024-02-21T10:59:34;5.80;;;5.27;;
22929;SDS011;11630;42.660;23.292;2024-02-21T11:02:06;7.00;;;6.30;;
22929;SDS011;11630;42.660;23.292;2024-02-21T11:04:36;7.90;;;6.80;;
22929;SDS011;11630;42.660;23.292;2024-02-21T11:07:07;9.97;;;6.93;;
22929;SDS011;11630;42.660;23.292;2024-02-21T11:09:39;7.17;;;5.90;;
22929;SDS011;11630;42.660;23.292;2024-02-21T11:12:09;8.07;;;6.37;;
22929;SDS011;11630;42.660;23.292;2024-02-21T11:14:40;6.73;;;6.03;;
22929;SDS011;11630;42.660;23.292;2024-02-21T11:17:15;7.60;;;6.00;;
22929;SDS011;11630;42.660;23.292;2024-02-21T11:19:49;8.23;;;5.40;;
22929;SDS011;11630;42.660;23.292;2024-02-21T11:22:20;7.27;;;5.50;;
22929;SDS011;11630;42.660;23.292;2024-02-21T11:24:51;8.50;;;6.33;;
22929;SDS011;11630;42.660;23.292;2024-02-21T11:27:22;8.07;;;6.37;;
22929;SDS011;11630;42.660;23.292;2024-02-21T11:29:56;8.87;;;6.07;;
22929;SDS011;11630;42.660;23.292;2024-02-21T11:32:29;10.10;;;6.37;;
22929;SDS011;11630;42.660;23.292;2024-02-21T11:35:02;6.37;;;5.73;;
22929;SDS011;11630;42.660;23.292;2024-02-21T11:37:33;6.90;;;6.00;;
22929;SDS011;11630;42.660;23.292;2024-02-21T11:40:05;8.90;;;6.63;;
22929;SDS011;11630;42.660;23.292;2024-02-21T11:42:35;9.57;;;6.13;;
22929;SDS011;11630;42.660;23.292;2024-02-21T11:45:04;6.20;;;5.00;;
22929;SDS011;11630;42.660;23.292;2024-02-21T11:47:39;6.47;;;5.60;;
22929;SDS011;11630;42.660;23.292;2024-02-21T11:50:14;5.10;;;4.53;;
22929;SDS011;11630;42.660;23.292;2024-02-21T11:52:48;13.83;;;5.40;;
22929;SDS011;11630;42.660;23.292;2024-02-21T11:55:23;6.97;;;5.90;;
22929;SDS011;11630;42.660;23.292;2024-02-21T11:57:52;7.40;;;5.80;;
22929;SDS011;11630;42.660;23.292;2024-02-21T12:00:25;7.13;;;6.07;;
22929;SDS011;11630;42.660;23.292;2024-02-21T12:02:56;10.27;;;5.90;;
22929;SDS011;11630;42.660;23.292;2024-02-21T12:05:27;6.33;;;5.20;;
22929;SDS011;11630;42.660;23.292;2024-02-21T12:07:59;6.83;;;6.10;;
22929;SDS011;11630;42.660;23.292;2024-02-21T12:10:28;8.90;;;6.10;;
22929;SDS011;11630;42.660;23.292;2024-02-21T12:13:06;7.47;;;6.13;;
22929;SDS011;11630;42.660;23.292;2024-02-21T12:15:39;12.77;;;7.20;;
22929;SDS011;11630;42.660;23.292;2024-02-21T12:18:12;12.37;;;8.27;;
22929;SDS011;11630;42.660;23.292;2024-02-21T12:20:42;17.07;;;10.00;;
22929;SDS011;11630;42.660;23.292;2024-02-21T12:23:13;12.77;;;8.50;;
22929;SDS011;11630;42.660;23.292;2024-02-21T12:25:45;15.47;;;8.03;;
22929;SDS011;11630;42.660;23.292;2024-02-21T12:28:16;10.40;;;7.77;;
22929;SDS011;11630;42.660;23.292;2024-02-21T12:30:47;7.50;;;6.57;;
22929;SDS011;11630;42.660;23.292;2024-02-21T12:33:17;7.23;;;5.73;;
22929;SDS011;11630;42.660;23.292;2024-02-21T12:35:48;10.80;;;6.77;;
22929;SDS011;11630;42.660;23.292;2024-02-21T12:38:22;7.40;;;6.27;;
22929;SDS011;11630;42.660;23.292;2024-02-21T12:40:53;6.30;;;5.33;;
22929;SDS011;11630;42.660;23.292;2024-02-21T12:43:27;8.60;;;5.70;;
22929;SDS011;11630;42.660;23.292;2024-02-21T12:45:57;9.30;;;5.40;;
22929;SDS011;11630;42.660;23.292;2024-02-21T12:48:28;6.37;;;5.73;;
22929;SDS011;11630;42.660;23.292;2024-02-21T12:50:59;8.20;;;6.67;;
22929;SDS011;11630;42.660;23.292;2024-02-21T12:53:28;12.97;;;6.57;;
22929;SDS011;11630;42.660;23.292;2024-02-21T12:55:59;8.30;;;7.40;;
22929;SDS011;11630;42.660;23.292;2024-02-21T12:58:30;11.10;;;6.10;;
22929;SDS011;11630;42.660;23.292;2024-02-21T13:01:01;9.07;;;7.47;;
22929;SDS011;11630;42.660;23.292;2024-02-21T13:03:31;9.57;;;7.37;;
22929;SDS011;11630;42.660;23.292;2024-02-21T13:06:02;11.50;;;6.27;;
22929;SDS011;11630;42.660;23.292;2024-02-21T13:08:34;13.60;;;7.50;;
22929;SDS011;11630;42.660;23.292;2024-02-21T13:11:06;11.77;;;6.73;;
22929;SDS011;11630;42.660;23.292;2024-02-21T13:13:35;8.93;;;7.13;;
22929;SDS011;11630;42.660;23.292;2024-02-21T13:16:05;8.40;;;7.40;;
22929;SDS011;11630;42.660;23.292;2024-02-21T13:18:36;9.93;;;7.70;;
22929;SDS011;11630;42.660;23.292;2024-02-21T13:21:07;11.40;;;8.30;;
22929;SDS011;11630;42.660;23.292;2024-02-21T13:23:38;10.37;;;8.17;;
22929;SDS011;11630;42.660;23.292;2024-02-21T13:26:09;13.27;;;9.40;;
22929;SDS011;11630;42.660;23.292;2024-02-21T13:28:40;13.50;;;9.40;;
22929;SDS011;11630;42.660;23.292;2024-02-21T13:31:15;11.97;;;7.30;;
22929;SDS011;11630;42.660;23.292;2024-02-21T13:33:42;7.43;;;6.67;;
22929;SDS011;11630;42.660;23.292;2024-02-21T13:36:13;9.60;;;7.40;;
22929;SDS011;11630;42.660;23.292;2024-02-21T13:38:43;13.17;;;8.37;;
22929;SDS011;11630;42.660;23.292;2024-02-21T13:41:14;11.97;;;7.80;;
22929;SDS011;11630;42.660;23.292;2024-02-21T13:43:44;9.53;;;7.23;;
22929;SDS011;11630;42.660;23.292;2024-02-21T13:46:15;9.73;;;7.27;;
22929;SDS011;11630;42.660;23.292;2024-02-21T13:48:48;7.70;;;6.90;;
22929;SDS011;11630;42.660;23.292;2024-02-21T13:51:22;10.87;;;6.63;;
22929;SDS011;11630;42.660;23.292;2024-02-21T13:53:53;16.17;;;7.87;;
22929;SDS011;11630;42.660;23.292;2024-02-21T13:56:23;8.87;;;6.70;;
22929;SDS011;11630;42.660;23.292;2024-02-21T13:58:54;6.93;;;6.23;;
22929;SDS011;11630;42.660;23.292;2024-02-21T14:01:24;7.43;;;6.73;;
22929;SDS011;11630;42.660;23.292;2024-02-21T14:03:55;8.67;;;7.17;;
22929;SDS011;11630;42.660;23.292;2024-02-21T14:06:26;9.40;;;7.30;;
22929;SDS011;11630;42.660;23.292;2024-02-21T14:08:57;15.33;;;7.90;;
22929;SDS011;11630;42.660;23.292;2024-02-21T14:11:28;14.07;;;7.17;;
22929;SDS011;11630;42.660;23.292;2024-02-21T14:13:59;8.33;;;7.20;;
22929;SDS011;11630;42.660;23.292;2024-02-21T14:16:30;8.30;;;7.13;;
22929;SDS011;11630;42.660;23.292;2024-02-21T14:19:01;11.17;;;7.53;;
22929;SDS011;11630;42.660;23.292;2024-02-21T14:21:31;7.60;;;6.00;;
22929;SDS011;11630;42.660;23.292;2024-02-21T14:24:02;12.10;;;6.77;;
22929;SDS011;11630;42.660;23.292;2024-02-21T14:26:35;8.77;;;5.97;;
22929;SDS011;11630;42.660;23.292;2024-02-21T14:29:06;7.63;;;6.23;;
22929;SDS011;11630;42.660;23.292;2024-02-21T14:31:37;9.63;;;7.10;;
22929;SDS011;11630;42.660;23.292;2024-02-21T14:34:08;13.73;;;7.83;;
22929;SDS011;11630;42.660;23.292;2024-02-21T14:36:39;18.83;;;8.90;;
22929;SDS011;11630;42.660;23.292;2024-02-21T14:39:10;10.33;;;7.20;;
22929;SDS011;11630;42.660;23.292;2024-02-21T14:41:41;7.57;;;6.63;;
22929;SDS011;11630;42.660;23.292;2024-02-21T14:44:17;15.63;;;8.47;;
22929;SDS011;11630;42.660;23.292;2024-02-21T14:46:44;10.80;;;8.10;;
22929;SDS011;11630;42.660;23.292;2024-02-21T14:49:15;11.13;;;7.93;;
22929;SDS011;11630;42.660;23.292;2024-02-21T14:51:44;7.70;;;6.23;;
22929;SDS011;11630;42.660;23.292;2024-02-21T14:54:18;12.67;;;6.23;;